sensor_id;sensor_type;location;lat;lon;timestamp;temperature;humidity
1806;DHT22;901;48.142;11.516;2023-07-31T00:00:23;17.30;99.90
1806;DHT22;901;48.142;11.516;2023-07-31T00:02:50;17.20;99.90
1806;DHT22;901;48.142;11.516;2023-07-31T00:05:17;17.10;99.90
1806;DHT22;901;48.142;11.516;2023-07-31T00:07:44;17.10;99.90
1806;DHT22;901;48.142;11.516;2023-07-31T00:10:12;17.00;99.90
1806;DHT22;901;48.142;11.516;2023-07-31T00:12:41;17.00;99.90
1806;DHT22;901;48.142;11.516;2023-07-31T00:15:09;16.90;99.90
1806;DHT22;901;48.142;11.516;2023-07-31T00:17:36;16.80;99.90
1806;DHT22;901;48.142;11.516;2023-07-31T00:20:04;16.80;99.90
1806;DHT22;901;48.142;11.516;2023-07-31T00:22:31;16.70;99.90
1806;DHT22;901;48.142;11.516;2023-07-31T00:24:58;16.70;99.90
1806;DHT22;901;48.142;11.516;2023-07-31T00:27:26;16.70;99.90
1806;DHT22;901;48.142;11.516;2023-07-31T00:29:53;16.70;99.90
1806;DHT22;901;48.142;11.516;2023-07-31T00:32:20;16.80;99.90
1806;DHT22;901;48.142;11.516;2023-07-31T00:34:47;16.80;99.90
1806;DHT22;901;48.142;11.516;2023-07-31T00:37:13;16.70;99.90
1806;DHT22;901;48.142;11.516;2023-07-31T00:39:41;16.70;99.90
1806;DHT22;901;48.142;11.516;2023-07-31T00:42:08;16.70;99.90
1806;DHT22;901;48.142;11.516;2023-07-31T00:44:36;16.70;99.90
1806;DHT22;901;48.142;11.516;2023-07-31T00:47:04;16.70;99.90
1806;DHT22;901;48.142;11.516;2023-07-31T00:49:31;16.60;99.90
1806;DHT22;901;48.142;11.516;2023-07-31T00:51:58;16.60;99.90
1806;DHT22;901;48.142;11.516;2023-07-31T00:54:26;16.60;99.90
1806;DHT22;901;48.142;11.516;2023-07-31T00:56:53;16.50;99.90
1806;DHT22;901;48.142;11.516;2023-07-31T00:59:21;16.50;99.90
1806;DHT22;901;48.142;11.516;2023-07-31T01:01:49;16.50;99.90
1806;DHT22;901;48.142;11.516;2023-07-31T01:04:17;16.50;99.90
1806;DHT22;901;48.142;11.516;2023-07-31T01:06:48;16.50;99.90
1806;DHT22;901;48.142;11.516;2023-07-31T01:09:31;16.50;99.90
1806;DHT22;901;48.142;11.516;2023-07-31T01:12:01;16.60;99.90
1806;DHT22;901;48.142;11.516;2023-07-31T01:14:28;16.60;99.90
1806;DHT22;901;48.142;11.516;2023-07-31T01:16:56;16.60;99.90
1806;DHT22;901;48.142;11.516;2023-07-31T01:19:25;16.60;99.90
1806;DHT22;901;48.142;11.516;2023-07-31T01:22:14;16.70;99.90
1806;DHT22;901;48.142;11.516;2023-07-31T01:24:55;16.70;99.90
1806;DHT22;901;48.142;11.516;2023-07-31T01:27:25;16.80;99.90
1806;DHT22;901;48.142;11.516;2023-07-31T01:29:59;16.80;99.90
1806;DHT22;901;48.142;11.516;2023-07-31T01:32:28;16.80;99.90
1806;DHT22;901;48.142;11.516;2023-07-31T01:34:56;16.80;99.90
1806;DHT22;901;48.142;11.516;2023-07-31T01:37:28;16.90;99.90
1806;DHT22;901;48.142;11.516;2023-07-31T01:39:55;16.80;99.90
1806;DHT22;901;48.142;11.516;2023-07-31T01:42:24;16.90;99.90
1806;DHT22;901;48.142;11.516;2023-07-31T01:44:50;16.80;99.90
1806;DHT22;901;48.142;11.516;2023-07-31T01:47:17;16.80;99.90
1806;DHT22;901;48.142;11.516;2023-07-31T01:49:44;16.80;99.90
1806;DHT22;901;48.142;11.516;2023-07-31T01:52:11;16.80;99.90
1806;DHT22;901;48.142;11.516;2023-07-31T01:54:38;16.90;99.90
1806;DHT22;901;48.142;11.516;2023-07-31T01:57:05;16.90;99.90
1806;DHT22;901;48.142;11.516;2023-07-31T01:59:33;16.90;99.90
1806;DHT22;901;48.142;11.516;2023-07-31T02:02:00;16.90;99.90
1806;DHT22;901;48.142;11.516;2023-07-31T02:04:27;16.90;99.90
1806;DHT22;901;48.142;11.516;2023-07-31T02:06:54;16.90;99.90
1806;DHT22;901;48.142;11.516;2023-07-31T02:09:21;17.00;99.90
1806;DHT22;901;48.142;11.516;2023-07-31T02:11:48;17.00;99.90
1806;DHT22;901;48.142;11.516;2023-07-31T02:14:15;17.00;99.90
1806;DHT22;901;48.142;11.516;2023-07-31T02:16:43;17.00;99.90
1806;DHT22;901;48.142;11.516;2023-07-31T02:19:10;17.00;99.90
1806;DHT22;901;48.142;11.516;2023-07-31T02:21:36;17.00;99.90
1806;DHT22;901;48.142;11.516;2023-07-31T02:24:04;17.00;99.90
1806;DHT22;901;48.142;11.516;2023-07-31T02:26:31;16.90;99.90
1806;DHT22;901;48.142;11.516;2023-07-31T02:28:58;17.00;99.90
1806;DHT22;901;48.142;11.516;2023-07-31T02:31:24;17.00;99.90
1806;DHT22;901;48.142;11.516;2023-07-31T02:33:53;16.90;99.90
1806;DHT22;901;48.142;11.516;2023-07-31T02:36:19;16.90;99.90
1806;DHT22;901;48.142;11.516;2023-07-31T02:38:46;16.90;99.90
1806;DHT22;901;48.142;11.516;2023-07-31T02:41:13;16.90;99.90
1806;DHT22;901;48.142;11.516;2023-07-31T02:43:40;16.90;99.90
1806;DHT22;901;48.142;11.516;2023-07-31T02:46:07;16.80;99.90
1806;DHT22;901;48.142;11.516;2023-07-31T02:48:34;16.80;99.90
1806;DHT22;901;48.142;11.516;2023-07-31T02:51:02;16.70;99.90
1806;DHT22;901;48.142;11.516;2023-07-31T02:53:29;16.60;99.90
1806;DHT22;901;48.142;11.516;2023-07-31T02:55:56;16.50;99.90
1806;DHT22;901;48.142;11.516;2023-07-31T02:58:23;16.40;99.90
1806;DHT22;901;48.142;11.516;2023-07-31T03:00:49;16.40;99.90
1806;DHT22;901;48.142;11.516;2023-07-31T03:03:17;16.30;99.90
1806;DHT22;901;48.142;11.516;2023-07-31T03:05:43;16.20;99.90
1806;DHT22;901;48.142;11.516;2023-07-31T03:08:12;16.10;99.90
1806;DHT22;901;48.142;11.516;2023-07-31T03:10:38;16.10;99.90
1806;DHT22;901;48.142;11.516;2023-07-31T03:13:05;16.00;99.90
1806;DHT22;901;48.142;11.516;2023-07-31T03:15:32;15.90;99.90
1806;DHT22;901;48.142;11.516;2023-07-31T03:17:59;15.80;99.90
1806;DHT22;901;48.142;11.516;2023-07-31T03:20:26;15.80;99.90
1806;DHT22;901;48.142;11.516;2023-07-31T03:22:53;15.80;99.90
1806;DHT22;901;48.142;11.516;2023-07-31T03:25:21;15.70;99.90
1806;DHT22;901;48.142;11.516;2023-07-31T03:27:48;15.70;99.90
1806;DHT22;901;48.142;11.516;2023-07-31T03:30:15;15.70;99.90
1806;DHT22;901;48.142;11.516;2023-07-31T03:32:41;15.60;99.90
1806;DHT22;901;48.142;11.516;2023-07-31T03:35:08;15.60;99.90
1806;DHT22;901;48.142;11.516;2023-07-31T03:37:35;15.60;99.90
1806;DHT22;901;48.142;11.516;2023-07-31T03:40:04;15.60;99.90
1806;DHT22;901;48.142;11.516;2023-07-31T03:42:32;15.70;99.90
1806;DHT22;901;48.142;11.516;2023-07-31T03:44:59;15.80;99.90
1806;DHT22;901;48.142;11.516;2023-07-31T03:47:26;15.90;99.90
1806;DHT22;901;48.142;11.516;2023-07-31T03:49:53;15.90;99.90
1806;DHT22;901;48.142;11.516;2023-07-31T03:52:20;16.00;99.90
1806;DHT22;901;48.142;11.516;2023-07-31T03:54:47;16.00;99.90
1806;DHT22;901;48.142;11.516;2023-07-31T03:57:13;16.00;99.90
1806;DHT22;901;48.142;11.516;2023-07-31T03:59:42;16.00;99.90
1806;DHT22;901;48.142;11.516;2023-07-31T04:02:09;16.00;99.90
1806;DHT22;901;48.142;11.516;2023-07-31T04:04:35;16.10;99.90
1806;DHT22;901;48.142;11.516;2023-07-31T04:07:03;16.20;99.90
1806;DHT22;901;48.142;11.516;2023-07-31T04:09:30;16.10;99.90
1806;DHT22;901;48.142;11.516;2023-07-31T04:11:56;16.20;99.90
1806;DHT22;901;48.142;11.516;2023-07-31T04:14:23;16.20;99.90
1806;DHT22;901;48.142;11.516;2023-07-31T04:16:51;16.30;99.90
1806;DHT22;901;48.142;11.516;2023-07-31T04:19:18;16.30;99.90
1806;DHT22;901;48.142;11.516;2023-07-31T04:21:45;16.30;99.90
1806;DHT22;901;48.142;11.516;2023-07-31T04:24:12;16.20;99.90
1806;DHT22;901;48.142;11.516;2023-07-31T04:26:39;16.20;99.90
1806;DHT22;901;48.142;11.516;2023-07-31T04:29:06;16.20;99.90
1806;DHT22;901;48.142;11.516;2023-07-31T04:31:34;16.20;99.90
1806;DHT22;901;48.142;11.516;2023-07-31T04:34:02;16.20;99.90
1806;DHT22;901;48.142;11.516;2023-07-31T04:36:30;16.30;99.90
1806;DHT22;901;48.142;11.516;2023-07-31T04:38:57;16.30;99.90
1806;DHT22;901;48.142;11.516;2023-07-31T04:41:23;16.30;99.90
1806;DHT22;901;48.142;11.516;2023-07-31T04:43:50;16.40;99.90
1806;DHT22;901;48.142;11.516;2023-07-31T04:46:17;16.40;99.90
1806;DHT22;901;48.142;11.516;2023-07-31T04:48:44;16.40;99.90
1806;DHT22;901;48.142;11.516;2023-07-31T04:51:12;16.50;99.90
1806;DHT22;901;48.142;11.516;2023-07-31T04:53:39;16.60;99.90
1806;DHT22;901;48.142;11.516;2023-07-31T04:56:06;16.70;99.90
1806;DHT22;901;48.142;11.516;2023-07-31T04:58:33;16.90;99.90
1806;DHT22;901;48.142;11.516;2023-07-31T05:01:00;17.10;99.90
1806;DHT22;901;48.142;11.516;2023-07-31T05:03:26;17.50;99.90
1806;DHT22;901;48.142;11.516;2023-07-31T05:05:53;17.90;99.90
1806;DHT22;901;48.142;11.516;2023-07-31T05:08:22;18.00;99.90
1806;DHT22;901;48.142;11.516;2023-07-31T05:10:48;18.10;99.90
1806;DHT22;901;48.142;11.516;2023-07-31T05:13:15;18.50;99.90
1806;DHT22;901;48.142;11.516;2023-07-31T05:15:42;19.10;99.90
1806;DHT22;901;48.142;11.516;2023-07-31T05:18:09;19.90;99.90
1806;DHT22;901;48.142;11.516;2023-07-31T05:20:36;20.70;99.90
1806;DHT22;901;48.142;11.516;2023-07-31T05:23:03;21.40;99.90
1806;DHT22;901;48.142;11.516;2023-07-31T05:25:31;22.10;99.90
1806;DHT22;901;48.142;11.516;2023-07-31T05:27:58;22.60;99.90
1806;DHT22;901;48.142;11.516;2023-07-31T05:30:25;23.00;99.90
1806;DHT22;901;48.142;11.516;2023-07-31T05:32:52;23.30;99.90
1806;DHT22;901;48.142;11.516;2023-07-31T05:35:19;23.70;99.90
1806;DHT22;901;48.142;11.516;2023-07-31T05:37:45;24.20;99.90
1806;DHT22;901;48.142;11.516;2023-07-31T05:40:12;24.50;99.90
1806;DHT22;901;48.142;11.516;2023-07-31T05:42:40;24.60;99.90
1806;DHT22;901;48.142;11.516;2023-07-31T05:45:08;24.70;99.90
1806;DHT22;901;48.142;11.516;2023-07-31T05:47:35;24.60;99.90
1806;DHT22;901;48.142;11.516;2023-07-31T05:50:02;24.60;99.90
1806;DHT22;901;48.142;11.516;2023-07-31T05:52:29;24.40;99.90
1806;DHT22;901;48.142;11.516;2023-07-31T05:54:56;24.20;99.90
1806;DHT22;901;48.142;11.516;2023-07-31T05:57:22;23.80;99.90
1806;DHT22;901;48.142;11.516;2023-07-31T05:59:51;23.50;99.90
1806;DHT22;901;48.142;11.516;2023-07-31T06:02:18;23.20;99.90
1806;DHT22;901;48.142;11.516;2023-07-31T06:04:45;23.00;99.90
1806;DHT22;901;48.142;11.516;2023-07-31T06:07:12;22.80;99.90
1806;DHT22;901;48.142;11.516;2023-07-31T06:09:39;22.70;99.90
1806;DHT22;901;48.142;11.516;2023-07-31T06:12:06;22.70;99.90
1806;DHT22;901;48.142;11.516;2023-07-31T06:14:34;22.80;99.90
1806;DHT22;901;48.142;11.516;2023-07-31T06:17:02;23.00;99.90
1806;DHT22;901;48.142;11.516;2023-07-31T06:19:29;23.10;99.90
1806;DHT22;901;48.142;11.516;2023-07-31T06:21:56;23.10;99.90
1806;DHT22;901;48.142;11.516;2023-07-31T06:24:23;23.00;99.90
1806;DHT22;901;48.142;11.516;2023-07-31T06:26:50;22.90;99.90
1806;DHT22;901;48.142;11.516;2023-07-31T06:29:17;22.80;99.90
1806;DHT22;901;48.142;11.516;2023-07-31T06:31:44;22.70;99.90
1806;DHT22;901;48.142;11.516;2023-07-31T06:34:12;22.70;99.90
1806;DHT22;901;48.142;11.516;2023-07-31T06:36:39;22.60;99.90
1806;DHT22;901;48.142;11.516;2023-07-31T06:39:06;22.60;99.90
1806;DHT22;901;48.142;11.516;2023-07-31T06:41:32;22.50;99.90
1806;DHT22;901;48.142;11.516;2023-07-31T06:43:59;22.40;99.90
1806;DHT22;901;48.142;11.516;2023-07-31T06:46:26;22.30;99.90
1806;DHT22;901;48.142;11.516;2023-07-31T06:48:53;22.30;99.90
1806;DHT22;901;48.142;11.516;2023-07-31T06:51:21;22.40;99.90
1806;DHT22;901;48.142;11.516;2023-07-31T06:53:48;22.50;99.90
1806;DHT22;901;48.142;11.516;2023-07-31T06:56:15;22.60;99.90
1806;DHT22;901;48.142;11.516;2023-07-31T06:58:42;22.70;99.90
1806;DHT22;901;48.142;11.516;2023-07-31T07:01:09;22.90;99.90
1806;DHT22;901;48.142;11.516;2023-07-31T07:03:36;22.90;99.90
1806;DHT22;901;48.142;11.516;2023-07-31T07:06:03;22.90;99.90
1806;DHT22;901;48.142;11.516;2023-07-31T07:08:31;22.80;99.90
1806;DHT22;901;48.142;11.516;2023-07-31T07:10:58;22.90;99.90
1806;DHT22;901;48.142;11.516;2023-07-31T07:13:25;22.90;99.90
1806;DHT22;901;48.142;11.516;2023-07-31T07:15:52;22.90;99.90
1806;DHT22;901;48.142;11.516;2023-07-31T07:18:19;22.80;99.90
1806;DHT22;901;48.142;11.516;2023-07-31T07:20:47;22.80;99.90
1806;DHT22;901;48.142;11.516;2023-07-31T07:23:14;22.60;99.90
1806;DHT22;901;48.142;11.516;2023-07-31T07:25:42;22.40;99.90
1806;DHT22;901;48.142;11.516;2023-07-31T07:28:09;22.40;99.90
1806;DHT22;901;48.142;11.516;2023-07-31T07:30:36;22.40;99.90
1806;DHT22;901;48.142;11.516;2023-07-31T07:33:03;22.50;99.90
1806;DHT22;901;48.142;11.516;2023-07-31T07:35:30;22.50;99.90
1806;DHT22;901;48.142;11.516;2023-07-31T07:38:01;22.50;99.90
1806;DHT22;901;48.142;11.516;2023-07-31T07:40:28;22.60;99.90
1806;DHT22;901;48.142;11.516;2023-07-31T07:42:56;22.70;99.90
1806;DHT22;901;48.142;11.516;2023-07-31T07:45:25;22.80;99.90
1806;DHT22;901;48.142;11.516;2023-07-31T07:47:52;22.90;99.90
1806;DHT22;901;48.142;11.516;2023-07-31T07:50:19;23.00;99.90
1806;DHT22;901;48.142;11.516;2023-07-31T07:52:46;23.10;99.90
1806;DHT22;901;48.142;11.516;2023-07-31T07:55:13;23.20;99.90
1806;DHT22;901;48.142;11.516;2023-07-31T07:57:39;23.30;99.90
1806;DHT22;901;48.142;11.516;2023-07-31T08:00:09;23.30;99.90
1806;DHT22;901;48.142;11.516;2023-07-31T08:02:36;23.20;99.90
1806;DHT22;901;48.142;11.516;2023-07-31T08:05:04;23.20;99.90
1806;DHT22;901;48.142;11.516;2023-07-31T08:07:31;23.30;99.90
1806;DHT22;901;48.142;11.516;2023-07-31T08:09:58;23.40;99.90
1806;DHT22;901;48.142;11.516;2023-07-31T08:12:25;23.20;99.90
1806;DHT22;901;48.142;11.516;2023-07-31T08:14:52;23.20;99.90
1806;DHT22;901;48.142;11.516;2023-07-31T08:17:20;23.20;99.90
1806;DHT22;901;48.142;11.516;2023-07-31T08:19:47;23.40;99.90
1806;DHT22;901;48.142;11.516;2023-07-31T08:22:14;23.70;99.90
1806;DHT22;901;48.142;11.516;2023-07-31T08:24:41;24.00;99.90
1806;DHT22;901;48.142;11.516;2023-07-31T08:27:07;24.50;99.90
1806;DHT22;901;48.142;11.516;2023-07-31T08:29:34;24.80;99.90
1806;DHT22;901;48.142;11.516;2023-07-31T08:32:01;25.00;99.90
1806;DHT22;901;48.142;11.516;2023-07-31T08:34:29;25.00;99.90
1806;DHT22;901;48.142;11.516;2023-07-31T08:36:56;24.90;99.90
1806;DHT22;901;48.142;11.516;2023-07-31T08:39:23;24.50;99.90
1806;DHT22;901;48.142;11.516;2023-07-31T08:41:50;24.00;99.90
1806;DHT22;901;48.142;11.516;2023-07-31T08:44:18;23.40;99.90
1806;DHT22;901;48.142;11.516;2023-07-31T08:46:46;23.00;99.90
1806;DHT22;901;48.142;11.516;2023-07-31T08:49:14;22.80;99.90
1806;DHT22;901;48.142;11.516;2023-07-31T08:51:43;22.60;99.90
1806;DHT22;901;48.142;11.516;2023-07-31T08:54:11;22.50;99.90
1806;DHT22;901;48.142;11.516;2023-07-31T08:56:39;22.40;99.90
1806;DHT22;901;48.142;11.516;2023-07-31T08:59:07;22.30;99.90
1806;DHT22;901;48.142;11.516;2023-07-31T09:01:37;22.20;99.90
1806;DHT22;901;48.142;11.516;2023-07-31T09:04:09;22.40;99.90
1806;DHT22;901;48.142;11.516;2023-07-31T09:06:37;22.70;99.90
1806;DHT22;901;48.142;11.516;2023-07-31T09:09:06;23.00;99.90
1806;DHT22;901;48.142;11.516;2023-07-31T09:11:34;23.40;99.90
1806;DHT22;901;48.142;11.516;2023-07-31T09:14:00;23.70;99.90
1806;DHT22;901;48.142;11.516;2023-07-31T09:16:34;24.10;99.90
1806;DHT22;901;48.142;11.516;2023-07-31T09:19:01;23.90;99.90
1806;DHT22;901;48.142;11.516;2023-07-31T09:21:29;23.60;99.90
1806;DHT22;901;48.142;11.516;2023-07-31T09:23:56;23.60;99.90
1806;DHT22;901;48.142;11.516;2023-07-31T09:26:31;23.50;99.90
1806;DHT22;901;48.142;11.516;2023-07-31T09:28:58;23.60;99.90
1806;DHT22;901;48.142;11.516;2023-07-31T09:31:41;23.90;99.90
1806;DHT22;901;48.142;11.516;2023-07-31T09:34:08;23.70;99.90
1806;DHT22;901;48.142;11.516;2023-07-31T09:36:40;23.70;99.90
1806;DHT22;901;48.142;11.516;2023-07-31T09:39:09;23.40;99.90
1806;DHT22;901;48.142;11.516;2023-07-31T09:41:38;23.30;99.90
1806;DHT22;901;48.142;11.516;2023-07-31T09:44:05;23.30;99.90
1806;DHT22;901;48.142;11.516;2023-07-31T09:46:35;23.00;99.90
1806;DHT22;901;48.142;11.516;2023-07-31T09:49:07;23.00;99.90
1806;DHT22;901;48.142;11.516;2023-07-31T09:51:35;23.00;99.90
1806;DHT22;901;48.142;11.516;2023-07-31T09:54:08;22.90;99.90
1806;DHT22;901;48.142;11.516;2023-07-31T09:56:41;22.90;99.90
1806;DHT22;901;48.142;11.516;2023-07-31T09:59:11;22.70;99.90
1806;DHT22;901;48.142;11.516;2023-07-31T10:01:38;22.70;99.90
1806;DHT22;901;48.142;11.516;2023-07-31T10:04:07;22.80;99.90
1806;DHT22;901;48.142;11.516;2023-07-31T10:06:35;22.80;99.90
1806;DHT22;901;48.142;11.516;2023-07-31T10:09:06;23.10;99.90
1806;DHT22;901;48.142;11.516;2023-07-31T10:11:41;23.50;99.90
1806;DHT22;901;48.142;11.516;2023-07-31T10:14:09;23.80;99.90
1806;DHT22;901;48.142;11.516;2023-07-31T10:16:38;23.90;99.90
1806;DHT22;901;48.142;11.516;2023-07-31T10:19:06;24.20;99.90
1806;DHT22;901;48.142;11.516;2023-07-31T10:21:34;24.50;99.90
1806;DHT22;901;48.142;11.516;2023-07-31T10:24:03;24.70;99.90
1806;DHT22;901;48.142;11.516;2023-07-31T10:26:32;24.60;99.90
1806;DHT22;901;48.142;11.516;2023-07-31T10:29:01;24.60;99.90
1806;DHT22;901;48.142;11.516;2023-07-31T10:31:28;24.90;99.90
1806;DHT22;901;48.142;11.516;2023-07-31T10:33:57;25.30;99.90
1806;DHT22;901;48.142;11.516;2023-07-31T10:36:24;25.60;99.90
1806;DHT22;901;48.142;11.516;2023-07-31T10:38:52;25.80;99.90
1806;DHT22;901;48.142;11.516;2023-07-31T10:41:28;25.80;99.90
1806;DHT22;901;48.142;11.516;2023-07-31T10:43:57;26.10;99.90
1806;DHT22;901;48.142;11.516;2023-07-31T10:46:28;26.30;99.90
1806;DHT22;901;48.142;11.516;2023-07-31T10:48:58;26.50;99.90
1806;DHT22;901;48.142;11.516;2023-07-31T10:51:33;26.40;99.90
1806;DHT22;901;48.142;11.516;2023-07-31T10:54:11;26.10;99.90
1806;DHT22;901;48.142;11.516;2023-07-31T10:56:38;25.90;99.90
1806;DHT22;901;48.142;11.516;2023-07-31T10:59:05;25.80;99.90
1806;DHT22;901;48.142;11.516;2023-07-31T11:01:51;25.50;99.90
1806;DHT22;901;48.142;11.516;2023-07-31T11:04:22;25.20;99.90
1806;DHT22;901;48.142;11.516;2023-07-31T11:06:56;24.90;99.90
1806;DHT22;901;48.142;11.516;2023-07-31T11:09:27;24.70;99.90
1806;DHT22;901;48.142;11.516;2023-07-31T11:11:55;24.70;99.90
1806;DHT22;901;48.142;11.516;2023-07-31T11:14:22;24.80;99.90
1806;DHT22;901;48.142;11.516;2023-07-31T11:16:51;24.80;99.90
1806;DHT22;901;48.142;11.516;2023-07-31T11:22:07;25.00;99.90
1806;DHT22;901;48.142;11.516;2023-07-31T11:24:34;25.10;99.90
1806;DHT22;901;48.142;11.516;2023-07-31T11:27:07;25.10;99.90
1806;DHT22;901;48.142;11.516;2023-07-31T11:29:35;25.30;99.90
1806;DHT22;901;48.142;11.516;2023-07-31T11:32:04;25.50;99.90
1806;DHT22;901;48.142;11.516;2023-07-31T11:34:31;25.50;99.90
1806;DHT22;901;48.142;11.516;2023-07-31T11:36:58;25.40;99.90
1806;DHT22;901;48.142;11.516;2023-07-31T11:39:25;25.30;99.90
1806;DHT22;901;48.142;11.516;2023-07-31T11:41:58;25.30;99.90
1806;DHT22;901;48.142;11.516;2023-07-31T11:44:25;25.10;99.90
1806;DHT22;901;48.142;11.516;2023-07-31T11:46:52;25.10;99.90
1806;DHT22;901;48.142;11.516;2023-07-31T11:49:21;25.10;99.90
1806;DHT22;901;48.142;11.516;2023-07-31T11:51:48;25.20;99.90
1806;DHT22;901;48.142;11.516;2023-07-31T11:54:15;25.30;99.90
1806;DHT22;901;48.142;11.516;2023-07-31T11:56:43;25.30;99.90
1806;DHT22;901;48.142;11.516;2023-07-31T11:59:11;25.30;99.90
1806;DHT22;901;48.142;11.516;2023-07-31T12:01:38;25.30;99.90
1806;DHT22;901;48.142;11.516;2023-07-31T12:04:05;25.20;99.90
1806;DHT22;901;48.142;11.516;2023-07-31T12:06:34;25.30;99.90
1806;DHT22;901;48.142;11.516;2023-07-31T12:09:03;25.30;99.90
1806;DHT22;901;48.142;11.516;2023-07-31T12:11:30;25.30;99.90
1806;DHT22;901;48.142;11.516;2023-07-31T12:13:57;25.20;99.90
1806;DHT22;901;48.142;11.516;2023-07-31T12:16:26;25.30;99.90
1806;DHT22;901;48.142;11.516;2023-07-31T12:18:54;25.50;99.90
1806;DHT22;901;48.142;11.516;2023-07-31T12:21:21;25.90;99.90
1806;DHT22;901;48.142;11.516;2023-07-31T12:23:51;25.80;99.90
1806;DHT22;901;48.142;11.516;2023-07-31T12:26:19;25.90;99.90
1806;DHT22;901;48.142;11.516;2023-07-31T12:28:50;26.10;99.90
1806;DHT22;901;48.142;11.516;2023-07-31T12:31:18;26.30;99.90
1806;DHT22;901;48.142;11.516;2023-07-31T12:33:45;26.40;99.90
1806;DHT22;901;48.142;11.516;2023-07-31T12:36:14;26.40;99.90
1806;DHT22;901;48.142;11.516;2023-07-31T12:38:42;26.40;99.90
1806;DHT22;901;48.142;11.516;2023-07-31T12:41:10;26.40;99.90
1806;DHT22;901;48.142;11.516;2023-07-31T12:43:39;26.50;99.90
1806;DHT22;901;48.142;11.516;2023-07-31T12:46:07;26.50;99.90
1806;DHT22;901;48.142;11.516;2023-07-31T12:48:34;26.60;99.90
1806;DHT22;901;48.142;11.516;2023-07-31T12:51:01;26.40;99.90
1806;DHT22;901;48.142;11.516;2023-07-31T12:53:28;26.10;99.90
1806;DHT22;901;48.142;11.516;2023-07-31T12:55:55;26.10;99.90
1806;DHT22;901;48.142;11.516;2023-07-31T12:58:24;25.90;99.90
1806;DHT22;901;48.142;11.516;2023-07-31T13:00:51;26.00;99.90
1806;DHT22;901;48.142;11.516;2023-07-31T13:03:18;26.10;99.90
1806;DHT22;901;48.142;11.516;2023-07-31T13:05:45;26.20;99.90
1806;DHT22;901;48.142;11.516;2023-07-31T13:08:12;26.40;99.90
1806;DHT22;901;48.142;11.516;2023-07-31T13:10:41;26.60;99.90
1806;DHT22;901;48.142;11.516;2023-07-31T13:13:09;26.60;99.90
1806;DHT22;901;48.142;11.516;2023-07-31T13:15:37;26.70;99.90
1806;DHT22;901;48.142;11.516;2023-07-31T13:18:04;26.90;99.90
1806;DHT22;901;48.142;11.516;2023-07-31T13:20:31;27.00;99.90
1806;DHT22;901;48.142;11.516;2023-07-31T13:22:58;26.90;99.90
1806;DHT22;901;48.142;11.516;2023-07-31T13:25:24;27.20;99.90
1806;DHT22;901;48.142;11.516;2023-07-31T13:27:51;27.20;98.90
1806;DHT22;901;48.142;11.516;2023-07-31T13:30:18;27.20;99.10
1806;DHT22;901;48.142;11.516;2023-07-31T13:32:46;27.40;99.10
1806;DHT22;901;48.142;11.516;2023-07-31T13:35:13;27.40;98.30
1806;DHT22;901;48.142;11.516;2023-07-31T13:37:40;27.10;98.90
1806;DHT22;901;48.142;11.516;2023-07-31T13:40:08;26.90;99.10
1806;DHT22;901;48.142;11.516;2023-07-31T13:42:35;27.00;99.50
1806;DHT22;901;48.142;11.516;2023-07-31T13:45:02;26.90;99.40
1806;DHT22;901;48.142;11.516;2023-07-31T13:47:29;26.70;99.30
1806;DHT22;901;48.142;11.516;2023-07-31T13:49:58;26.80;99.90
1806;DHT22;901;48.142;11.516;2023-07-31T13:52:25;26.90;99.90
1806;DHT22;901;48.142;11.516;2023-07-31T13:54:51;27.10;99.90
1806;DHT22;901;48.142;11.516;2023-07-31T13:57:18;27.30;99.70
1806;DHT22;901;48.142;11.516;2023-07-31T13:59:45;27.10;99.90
1806;DHT22;901;48.142;11.516;2023-07-31T14:02:12;27.10;99.80
1806;DHT22;901;48.142;11.516;2023-07-31T14:04:40;27.00;99.70
1806;DHT22;901;48.142;11.516;2023-07-31T14:07:08;27.00;97.90
1806;DHT22;901;48.142;11.516;2023-07-31T14:09:35;26.90;97.10
1806;DHT22;901;48.142;11.516;2023-07-31T14:12:03;26.80;97.20
1806;DHT22;901;48.142;11.516;2023-07-31T14:14:30;26.90;98.00
1806;DHT22;901;48.142;11.516;2023-07-31T14:16:59;27.00;98.10
1806;DHT22;901;48.142;11.516;2023-07-31T14:19:26;26.90;98.70
1806;DHT22;901;48.142;11.516;2023-07-31T14:21:53;27.00;98.50
1806;DHT22;901;48.142;11.516;2023-07-31T14:24:21;27.20;98.50
1806;DHT22;901;48.142;11.516;2023-07-31T14:26:48;27.40;98.40
1806;DHT22;901;48.142;11.516;2023-07-31T14:29:15;27.50;98.70
1806;DHT22;901;48.142;11.516;2023-07-31T14:31:42;27.60;98.60
1806;DHT22;901;48.142;11.516;2023-07-31T14:34:09;27.70;97.70
1806;DHT22;901;48.142;11.516;2023-07-31T14:36:36;27.60;97.30
1806;DHT22;901;48.142;11.516;2023-07-31T14:39:03;27.30;97.70
1806;DHT22;901;48.142;11.516;2023-07-31T14:41:31;27.30;97.60
1806;DHT22;901;48.142;11.516;2023-07-31T14:43:58;27.30;97.90
1806;DHT22;901;48.142;11.516;2023-07-31T14:46:25;27.40;97.80
1806;DHT22;901;48.142;11.516;2023-07-31T14:48:51;27.00;98.00
1806;DHT22;901;48.142;11.516;2023-07-31T14:51:19;26.60;98.80
1806;DHT22;901;48.142;11.516;2023-07-31T14:53:46;26.60;99.00
1806;DHT22;901;48.142;11.516;2023-07-31T14:56:12;26.70;99.10
1806;DHT22;901;48.142;11.516;2023-07-31T14:58:41;26.80;99.20
1806;DHT22;901;48.142;11.516;2023-07-31T15:01:08;27.00;98.30
1806;DHT22;901;48.142;11.516;2023-07-31T15:03:35;27.20;97.40
1806;DHT22;901;48.142;11.516;2023-07-31T15:06:02;27.10;96.80
1806;DHT22;901;48.142;11.516;2023-07-31T15:08:30;26.90;97.50
1806;DHT22;901;48.142;11.516;2023-07-31T15:10:57;26.60;98.00
1806;DHT22;901;48.142;11.516;2023-07-31T15:13:24;26.40;98.70
1806;DHT22;901;48.142;11.516;2023-07-31T15:15:53;26.30;98.70
1806;DHT22;901;48.142;11.516;2023-07-31T15:18:21;26.20;98.70
1806;DHT22;901;48.142;11.516;2023-07-31T15:20:48;26.10;99.00
1806;DHT22;901;48.142;11.516;2023-07-31T15:23:15;26.00;99.30
1806;DHT22;901;48.142;11.516;2023-07-31T15:25:42;25.80;99.90
1806;DHT22;901;48.142;11.516;2023-07-31T15:28:09;25.60;99.90
1806;DHT22;901;48.142;11.516;2023-07-31T15:30:36;25.30;99.90
1806;DHT22;901;48.142;11.516;2023-07-31T15:33:04;25.10;99.90
1806;DHT22;901;48.142;11.516;2023-07-31T15:35:31;24.90;99.90
1806;DHT22;901;48.142;11.516;2023-07-31T15:37:58;24.80;99.90
1806;DHT22;901;48.142;11.516;2023-07-31T15:40:25;24.70;99.90
1806;DHT22;901;48.142;11.516;2023-07-31T15:42:52;24.60;99.90
1806;DHT22;901;48.142;11.516;2023-07-31T15:45:20;24.40;99.90
1806;DHT22;901;48.142;11.516;2023-07-31T15:47:48;24.20;99.90
1806;DHT22;901;48.142;11.516;2023-07-31T15:50:16;24.10;99.90
1806;DHT22;901;48.142;11.516;2023-07-31T15:52:43;23.80;99.90
1806;DHT22;901;48.142;11.516;2023-07-31T15:55:10;23.70;99.90
1806;DHT22;901;48.142;11.516;2023-07-31T15:57:37;23.70;99.90
1806;DHT22;901;48.142;11.516;2023-07-31T16:00:05;23.70;99.90
1806;DHT22;901;48.142;11.516;2023-07-31T16:02:34;23.60;99.90
1806;DHT22;901;48.142;11.516;2023-07-31T16:05:01;23.60;99.90
1806;DHT22;901;48.142;11.516;2023-07-31T16:07:29;23.60;99.90